createdAt,value
2023-01-28T00:01:58.466Z,75.66
2023-01-28T00:04:25.285Z,74.73
2023-01-28T00:06:52.116Z,75.31
2023-01-28T00:09:18.750Z,75.69
2023-01-28T00:11:47.852Z,75.40
2023-01-28T00:14:14.298Z,74.89
2023-01-28T00:16:42.044Z,74.68
2023-01-28T00:19:08.419Z,74.50
2023-01-28T00:21:34.841Z,74.48
2023-01-28T00:24:01.759Z,73.90
2023-01-28T00:26:28.086Z,74.80
2023-01-28T00:28:57.046Z,74.59
2023-01-28T00:31:25.891Z,74.13
2023-01-28T00:33:53.173Z,74.54
2023-01-28T00:36:21.445Z,75.06
2023-01-28T00:38:52.647Z,74.12
2023-01-28T00:41:20.925Z,75.25
2023-01-28T00:43:48.023Z,74.96
2023-01-28T00:46:15.586Z,74.73
2023-01-28T00:48:43.608Z,74.77
2023-01-28T00:51:12.806Z,75.16
2023-01-28T00:53:39.435Z,74.38
2023-01-28T00:56:11.836Z,74.00
2023-01-28T00:58:38.186Z,75.59
2023-01-28T01:01:09.739Z,74.43
2023-01-28T01:03:36.130Z,73.82
2023-01-28T01:06:02.487Z,73.04
2023-01-28T01:08:28.791Z,73.71
2023-01-28T01:10:59.002Z,73.85
2023-01-28T01:13:25.310Z,73.29
2023-01-28T01:16:10.741Z,73.47
2023-01-28T01:18:38.320Z,75.08
2023-01-28T01:21:09.449Z,75.45
2023-01-28T01:23:35.945Z,75.05
2023-01-28T01:26:04.007Z,74.90
2023-01-28T01:28:30.322Z,74.68
2023-01-28T01:31:05.373Z,73.72
2023-01-28T01:33:32.096Z,73.54
2023-01-28T01:35:59.411Z,73.65
2023-01-28T01:38:26.568Z,73.02
2023-01-28T01:40:56.674Z,73.50
2023-01-28T01:43:23.251Z,73.96
2023-01-28T01:45:58.481Z,73.38
2023-01-28T01:48:32.010Z,73.58
2023-01-28T01:51:04.075Z,73.12
2023-01-28T01:53:31.252Z,73.36
2023-01-28T01:56:02.516Z,72.83
2023-01-28T01:58:33.517Z,73.18
2023-01-28T02:00:59.843Z,72.84
2023-01-28T02:03:33.750Z,73.12
2023-01-28T02:06:00.152Z,72.68
2023-01-28T02:08:26.538Z,73.67
2023-01-28T02:10:56.439Z,74.11
2023-01-28T02:13:27.475Z,73.68
2023-01-28T02:15:54.947Z,72.78
2023-01-28T02:18:21.377Z,72.84
2023-01-28T02:21:12.336Z,74.10
2023-01-28T02:23:59.725Z,73.22
2023-01-28T02:26:45.859Z,71.92
2023-01-28T02:29:22.867Z,72.80
2023-01-28T02:32:06.318Z,72.40
2023-01-28T02:34:42.574Z,73.04
2023-01-28T02:37:24.505Z,73.38
2023-01-28T02:40:02.771Z,73.57
2023-01-28T02:42:31.868Z,72.44
2023-01-28T02:44:58.304Z,71.61
2023-01-28T02:47:24.610Z,72.82
2023-01-28T02:49:56.008Z,73.54
2023-01-28T02:52:52.599Z,73.82
2023-01-28T02:55:28.540Z,74.87
2023-01-28T02:58:15.227Z,73.96
2023-01-28T03:01:00.643Z,73.00
2023-01-28T03:03:34.806Z,72.82
2023-01-28T03:06:07.075Z,73.63
2023-01-28T03:08:46.555Z,73.20
2023-01-28T03:11:12.890Z,72.57
2023-01-28T03:13:40.495Z,72.29
2023-01-28T03:16:07.038Z,71.47
2023-01-28T03:18:38.600Z,71.40
2023-01-28T03:21:12.408Z,73.08
2023-01-28T03:23:50.418Z,73.74
2023-01-28T03:26:23.020Z,72.44
2023-01-28T03:28:51.012Z,72.26
2023-01-28T03:31:20.411Z,72.96
2023-01-28T03:33:47.701Z,73.14
2023-01-28T03:36:14.171Z,73.03
2023-01-28T03:38:43.548Z,72.27
2023-01-28T03:41:11.324Z,71.58
2023-01-28T03:43:38.059Z,71.59
2023-01-28T03:46:04.767Z,71.45
2023-01-28T03:48:31.091Z,72.05
2023-01-28T03:50:58.128Z,71.52
2023-01-28T03:53:24.431Z,70.56
2023-01-28T03:55:53.107Z,70.57
2023-01-28T03:58:20.746Z,70.82
2023-01-28T04:00:47.670Z,70.38
2023-01-28T04:03:17.184Z,70.72
2023-01-28T04:06:05.778Z,71.30
2023-01-28T04:08:32.109Z,72.06
2023-01-28T04:10:58.571Z,72.82
2023-01-28T04:13:24.887Z,74.24
2023-01-28T04:15:51.655Z,73.04
2023-01-28T04:18:17.990Z,72.72
2023-01-28T04:20:44.291Z,71.99
2023-01-28T04:23:10.609Z,71.73
2023-01-28T04:25:37.015Z,72.25
2023-01-28T04:28:03.412Z,71.69
2023-01-28T04:30:29.772Z,71.50
2023-01-28T04:32:56.111Z,73.29
2023-01-28T04:35:22.437Z,74.33
2023-01-28T04:37:48.731Z,72.80
2023-01-28T04:40:15.178Z,72.23
2023-01-28T04:42:41.503Z,71.25
2023-01-28T04:45:08.383Z,71.23
2023-01-28T04:47:34.674Z,71.48
2023-01-28T04:50:00.967Z,71.45
2023-01-28T04:52:27.302Z,71.44
2023-01-28T04:54:53.605Z,70.47
2023-01-28T04:57:19.996Z,71.14
2023-01-28T04:59:46.285Z,71.39
2023-01-28T05:02:12.669Z,71.73
2023-01-28T05:04:38.961Z,71.25
2023-01-28T05:07:05.300Z,72.48
2023-01-28T05:09:31.609Z,73.07
2023-01-28T05:11:57.929Z,72.18
2023-01-28T05:14:24.259Z,73.42
2023-01-28T05:16:50.805Z,73.05
2023-01-28T05:19:17.096Z,72.75
2023-01-28T05:21:43.415Z,72.83
2023-01-28T05:24:09.973Z,72.65
2023-01-28T05:26:36.416Z,72.27
2023-01-28T05:29:03.335Z,73.33
2023-01-28T05:31:30.001Z,73.07
2023-01-28T05:33:56.314Z,73.84
2023-01-28T05:36:22.672Z,73.56
2023-01-28T05:38:48.995Z,74.79
2023-01-28T05:41:15.348Z,75.17
2023-01-28T05:43:41.666Z,73.55
2023-01-28T05:46:07.993Z,72.63
2023-01-28T05:48:34.491Z,71.33
2023-01-28T05:51:00.907Z,71.23
2023-01-28T05:53:27.259Z,72.02
2023-01-28T05:55:53.686Z,72.10
2023-01-28T05:58:21.104Z,72.69
2023-01-28T06:00:47.677Z,72.16
2023-01-28T06:03:14.084Z,72.25
2023-01-28T06:05:40.477Z,72.51
2023-01-28T06:08:06.893Z,73.05
2023-01-28T06:10:33.210Z,73.91
2023-01-28T06:12:59.502Z,72.93
2023-01-28T06:15:25.913Z,73.35
2023-01-28T06:17:52.234Z,72.61
2023-01-28T06:20:18.534Z,71.30
2023-01-28T06:22:44.863Z,71.87
2023-01-28T06:25:11.209Z,71.79
2023-01-28T06:27:37.516Z,70.35
2023-01-28T06:30:04.180Z,70.03
2023-01-28T06:32:30.481Z,70.17
2023-01-28T06:34:56.799Z,71.24
2023-01-28T06:37:25.286Z,69.91
2023-01-28T06:39:52.513Z,70.21
2023-01-28T06:42:18.834Z,70.67
2023-01-28T06:44:45.119Z,70.38
2023-01-28T06:47:11.480Z,70.16
2023-01-28T06:49:37.973Z,70.29
2023-01-28T06:52:04.516Z,70.85
2023-01-28T06:54:30.827Z,69.58
2023-01-28T06:56:57.125Z,69.78
2023-01-28T06:59:23.525Z,69.26
2023-01-28T07:01:50.015Z,69.35
2023-01-28T07:04:16.556Z,69.50
2023-01-28T07:06:42.911Z,71.86
2023-01-28T07:09:09.249Z,71.23
2023-01-28T07:11:35.608Z,71.49
2023-01-28T07:14:01.957Z,71.06
2023-01-28T07:16:28.289Z,70.06
2023-01-28T07:18:54.603Z,69.68
2023-01-28T07:21:20.903Z,70.25
2023-01-28T07:23:47.270Z,70.91
2023-01-28T07:26:13.559Z,70.79
2023-01-28T07:28:39.856Z,70.53
2023-01-28T07:31:06.248Z,70.86
2023-01-28T07:33:32.586Z,69.29
2023-01-28T07:35:58.900Z,70.78
2023-01-28T07:38:25.223Z,70.82
2023-01-28T07:40:51.552Z,71.78
2023-01-28T07:43:17.907Z,73.01
2023-01-28T07:45:44.574Z,73.78
2023-01-28T07:48:12.897Z,72.77
2023-01-28T07:50:39.868Z,70.89
2023-01-28T07:53:11.240Z,69.78
2023-01-28T07:55:38.833Z,70.45
2023-01-28T07:58:07.581Z,70.15
2023-01-28T08:00:36.080Z,69.95
2023-01-28T08:03:06.048Z,69.48
2023-01-28T08:05:42.825Z,69.36
2023-01-28T08:08:10.323Z,70.15
2023-01-28T08:10:37.412Z,70.39
2023-01-28T08:13:04.407Z,70.07
2023-01-28T08:15:32.779Z,69.79
2023-01-28T08:18:00.722Z,69.82
2023-01-28T08:20:28.735Z,68.65
2023-01-28T08:23:05.189Z,68.49
2023-01-28T08:25:31.512Z,68.26
2023-01-28T08:27:57.816Z,68.37
2023-01-28T08:30:24.158Z,67.70
2023-01-28T08:32:50.475Z,66.80
2023-01-28T08:35:16.907Z,67.07
2023-01-28T08:37:43.206Z,67.79
2023-01-28T08:40:10.111Z,68.29
2023-01-28T08:42:36.445Z,67.60
2023-01-28T08:45:02.846Z,67.79
2023-01-28T08:47:29.166Z,69.62
2023-01-28T08:49:55.515Z,67.86
2023-01-28T08:52:21.828Z,67.80
2023-01-28T08:54:48.128Z,67.76
2023-01-28T08:57:14.419Z,68.15
2023-01-28T08:59:40.747Z,67.73
2023-01-28T09:02:07.053Z,66.41
2023-01-28T09:04:33.363Z,67.01
2023-01-28T09:06:59.660Z,66.71
2023-01-28T09:09:25.964Z,67.20
2023-01-28T09:11:52.275Z,67.23
2023-01-28T09:14:18.681Z,67.89
2023-01-28T09:16:44.988Z,67.14
2023-01-28T09:19:11.335Z,67.51
2023-01-28T09:21:39.576Z,67.64
2023-01-28T09:24:06.108Z,67.52
2023-01-28T09:26:32.433Z,69.10
2023-01-28T09:28:58.749Z,68.68
2023-01-28T09:31:25.110Z,68.08
2023-01-28T09:33:51.471Z,67.52
2023-01-28T09:36:17.780Z,67.88
2023-01-28T09:38:44.078Z,68.84
2023-01-28T09:41:23.815Z,69.55
2023-01-28T09:44:20.420Z,69.27
2023-01-28T09:46:46.886Z,67.53
2023-01-28T09:49:26.898Z,68.01
2023-01-28T09:51:55.419Z,68.27
2023-01-28T09:54:39.754Z,70.23
2023-01-28T09:57:23.267Z,67.82
2023-01-28T09:59:49.836Z,68.15
2023-01-28T10:02:16.086Z,67.57
2023-01-28T10:05:03.588Z,68.31
2023-01-28T10:07:39.838Z,67.62
2023-01-28T10:10:12.210Z,67.20
2023-01-28T10:13:04.120Z,66.71
2023-01-28T10:15:48.727Z,65.87
2023-01-28T10:18:18.082Z,65.72
2023-01-28T10:21:01.997Z,64.36
2023-01-28T10:23:35.305Z,64.88
2023-01-28T10:26:09.732Z,64.18
2023-01-28T10:28:36.734Z,64.52
2023-01-28T10:31:03.172Z,64.71
2023-01-28T10:33:37.352Z,65.50
2023-01-28T10:36:04.265Z,64.55
2023-01-28T10:38:31.170Z,64.49
2023-01-28T10:41:01.374Z,64.77
2023-01-28T10:43:32.223Z,66.84
2023-01-28T10:46:09.587Z,66.49
2023-01-28T10:48:45.887Z,66.44
2023-01-28T10:51:12.243Z,67.08
2023-01-28T10:53:41.505Z,66.60
2023-01-28T10:56:11.663Z,68.53
2023-01-28T10:58:58.402Z,67.43
2023-01-28T11:01:24.912Z,67.10
2023-01-28T11:03:58.693Z,66.64
2023-01-28T11:06:29.760Z,67.11
2023-01-28T11:08:56.172Z,65.60
2023-01-28T11:11:25.687Z,66.30
2023-01-28T11:13:53.985Z,65.73
2023-01-28T11:16:21.827Z,64.75
2023-01-28T11:18:54.080Z,65.10
2023-01-28T11:21:26.906Z,66.42
2023-01-28T11:23:59.018Z,67.71
2023-01-28T11:26:29.420Z,68.52
2023-01-28T11:28:56.151Z,67.00
2023-01-28T11:31:23.819Z,66.89
2023-01-28T11:34:01.044Z,67.02
2023-01-28T11:36:33.294Z,65.55
2023-01-28T11:39:02.314Z,65.27
2023-01-28T11:41:34.027Z,65.36
2023-01-28T11:44:16.197Z,65.80
2023-01-28T11:47:25.003Z,65.32
2023-01-28T11:50:00.674Z,65.25
2023-01-28T11:53:04.801Z,64.29
2023-01-28T11:55:36.971Z,62.67
2023-01-28T11:58:21.730Z,63.09
2023-01-28T12:00:55.083Z,62.58
2023-01-28T12:03:39.079Z,62.75
2023-01-28T12:06:30.070Z,63.96
2023-01-28T12:09:01.668Z,63.19
2023-01-28T12:11:38.118Z,64.34
2023-01-28T12:14:21.487Z,64.50
2023-01-28T12:16:56.391Z,64.42
2023-01-28T12:19:50.711Z,63.24
2023-01-28T12:22:33.604Z,64.87
2023-01-28T12:25:10.528Z,64.84
2023-01-28T12:27:51.965Z,64.21
2023-01-28T12:30:20.996Z,63.53
2023-01-28T12:33:05.665Z,65.75
2023-01-28T12:35:47.778Z,65.51
2023-01-28T12:38:35.123Z,65.09
2023-01-28T12:41:08.211Z,64.94
2023-01-28T12:43:57.425Z,64.39
2023-01-28T12:46:31.572Z,63.32
2023-01-28T12:49:05.315Z,62.99
2023-01-28T12:51:53.411Z,62.75
2023-01-28T12:54:33.699Z,60.50
2023-01-28T12:57:00.212Z,60.52
2023-01-28T12:59:42.555Z,60.54
2023-01-28T13:02:11.868Z,59.94
2023-01-28T13:04:54.030Z,59.53
2023-01-28T13:07:38.671Z,61.19
2023-01-28T13:10:35.256Z,61.11
2023-01-28T13:13:03.327Z,61.67
2023-01-28T13:15:31.024Z,63.19
2023-01-28T13:17:59.835Z,63.94
2023-01-28T13:20:50.528Z,63.81
2023-01-28T13:23:22.840Z,63.31
2023-01-28T13:25:52.528Z,63.72
2023-01-28T13:28:26.616Z,63.89
2023-01-28T13:31:01.777Z,64.55
2023-01-28T13:33:40.035Z,66.65
2023-01-28T13:36:45.920Z,64.74
2023-01-28T13:39:20.539Z,64.51
2023-01-28T13:41:56.500Z,64.11
2023-01-28T13:44:25.746Z,63.49
2023-01-28T13:46:54.137Z,63.86
2023-01-28T13:49:33.940Z,63.59
2023-01-28T13:52:06.207Z,64.99
2023-01-28T13:54:35.585Z,65.17
2023-01-28T13:57:21.602Z,63.16
2023-01-28T14:00:26.723Z,64.27
2023-01-28T14:03:21.094Z,65.93
2023-01-28T14:06:28.183Z,65.71
2023-01-28T14:09:08.824Z,63.17
2023-01-28T14:11:53.313Z,64.35
2023-01-28T14:14:46.043Z,65.97
2023-01-28T14:17:30.388Z,65.56
2023-01-28T14:19:58.121Z,66.35
2023-01-28T14:22:24.544Z,65.58
2023-01-28T14:24:50.884Z,66.01
2023-01-28T14:27:34.980Z,66.16
2023-01-28T14:30:13.401Z,64.82
2023-01-28T14:32:46.597Z,65.42
2023-01-28T14:35:19.438Z,65.36
2023-01-28T14:37:46.119Z,63.99
2023-01-28T14:40:16.195Z,64.01
2023-01-28T14:42:46.532Z,63.90
2023-01-28T14:45:29.716Z,64.59
2023-01-28T14:48:24.449Z,65.23
2023-01-28T14:51:36.097Z,65.40
2023-01-28T14:54:05.349Z,65.42
2023-01-28T14:56:52.924Z,66.43
2023-01-28T14:59:25.703Z,68.37
2023-01-28T15:01:56.668Z,69.90
2023-01-28T15:04:31.940Z,69.78
2023-01-28T15:07:02.407Z,69.89
2023-01-28T15:09:28.713Z,70.28
2023-01-28T15:11:57.729Z,68.65
2023-01-28T15:14:30.120Z,70.91
2023-01-28T15:16:57.452Z,71.56
2023-01-28T15:19:30.303Z,70.75
2023-01-28T15:21:59.215Z,70.38
2023-01-28T15:24:26.032Z,70.59
2023-01-28T15:26:52.813Z,69.50
2023-01-28T15:29:41.960Z,69.40
2023-01-28T15:32:23.084Z,70.25
2023-01-28T15:34:49.383Z,69.97
2023-01-28T15:37:18.281Z,70.29
2023-01-28T15:39:44.618Z,71.27
2023-01-28T15:42:20.190Z,69.80
2023-01-28T15:44:47.471Z,70.63
2023-01-28T15:47:16.933Z,71.12
2023-01-28T15:49:47.098Z,72.02
2023-01-28T15:52:13.684Z,72.49
2023-01-28T15:54:47.133Z,72.25
2023-01-28T15:57:20.184Z,71.93
2023-01-28T15:59:47.256Z,72.28
2023-01-28T16:02:23.298Z,74.23
2023-01-28T16:05:05.659Z,74.31
2023-01-28T16:07:33.634Z,74.07
2023-01-28T16:10:02.472Z,73.87
2023-01-28T16:12:29.395Z,74.22
2023-01-28T16:14:58.806Z,74.53
2023-01-28T16:17:29.285Z,74.92
2023-01-28T16:20:07.696Z,74.38
2023-01-28T16:22:39.228Z,74.58
2023-01-28T16:25:26.287Z,75.20
2023-01-28T16:27:52.607Z,75.88
2023-01-28T16:30:19.014Z,75.60
2023-01-28T16:32:45.623Z,75.96
2023-01-28T16:35:23.825Z,76.08
2023-01-28T16:37:50.917Z,76.54
2023-01-28T16:40:22.648Z,77.36
2023-01-28T16:42:49.292Z,78.06
2023-01-28T16:45:17.975Z,78.76
2023-01-28T16:47:44.808Z,79.70
2023-01-28T16:50:12.722Z,80.45
2023-01-28T16:52:43.542Z,80.32
2023-01-28T16:55:19.022Z,81.15
2023-01-28T16:57:47.375Z,81.46
2023-01-28T17:00:16.679Z,81.86
2023-01-28T17:02:42.985Z,82.22
2023-01-28T17:05:09.433Z,82.09
2023-01-28T17:07:35.741Z,81.90
2023-01-28T17:10:02.125Z,82.26
2023-01-28T17:12:28.680Z,83.34
2023-01-28T17:14:55.052Z,84.16
2023-01-28T17:17:21.352Z,84.87
2023-01-28T17:19:47.675Z,85.18
2023-01-28T17:22:14.005Z,84.81
2023-01-28T17:24:40.359Z,84.46
2023-01-28T17:27:06.895Z,84.51
2023-01-28T17:29:33.502Z,85.13
2023-01-28T17:31:59.870Z,85.89
2023-01-28T17:34:26.331Z,85.56
2023-01-28T17:36:52.664Z,85.74
2023-01-28T17:39:19.035Z,85.75
2023-01-28T17:41:45.340Z,85.56
2023-01-28T17:44:13.093Z,85.51
2023-01-28T17:46:39.404Z,86.50
2023-01-28T17:49:05.698Z,86.95
2023-01-28T17:51:32.216Z,86.85
2023-01-28T17:53:58.591Z,87.04
2023-01-28T17:56:27.683Z,86.94
2023-01-28T17:58:56.301Z,87.12
2023-01-28T18:01:24.503Z,87.33
2023-01-28T18:03:51.131Z,87.43
2023-01-28T18:06:18.011Z,86.97
2023-01-28T18:08:44.912Z,86.70
2023-01-28T18:11:13.899Z,87.18
2023-01-28T18:13:41.272Z,87.36
2023-01-28T18:16:11.820Z,86.99
2023-01-28T18:18:38.133Z,86.75
2023-01-28T18:21:06.919Z,86.74
2023-01-28T18:23:33.974Z,86.95
2023-01-28T18:26:03.016Z,86.98
2023-01-28T18:28:29.870Z,87.19
2023-01-28T18:30:56.242Z,87.25
2023-01-28T18:33:25.890Z,87.35
2023-01-28T18:35:52.213Z,87.48
2023-01-28T18:38:19.032Z,87.67
2023-01-28T18:40:47.374Z,88.28
2023-01-28T18:43:14.638Z,88.59
2023-01-28T18:45:42.379Z,88.34
2023-01-28T18:48:10.593Z,88.46
2023-01-28T18:50:36.962Z,88.27
2023-01-28T18:53:04.376Z,87.67
2023-01-28T18:55:30.732Z,87.17
2023-01-28T18:57:58.595Z,86.83
2023-01-28T19:00:25.137Z,86.78
2023-01-28T19:02:51.448Z,87.58
2023-01-28T19:05:18.209Z,87.92
2023-01-28T19:07:44.686Z,87.81
2023-01-28T19:10:11.291Z,87.49
2023-01-28T19:12:41.992Z,87.78
2023-01-28T19:15:08.674Z,88.07
2023-01-28T19:17:35.676Z,88.91
2023-01-28T19:20:02.885Z,89.20
2023-01-28T19:22:32.294Z,89.36
2023-01-28T19:24:58.624Z,89.71
2023-01-28T19:27:25.047Z,89.75
2023-01-28T19:29:52.039Z,89.60
2023-01-28T19:32:18.551Z,89.24
2023-01-28T19:34:46.841Z,89.36
2023-01-28T19:37:14.082Z,89.06
2023-01-28T19:39:40.370Z,88.73
2023-01-28T19:42:06.886Z,88.19
2023-01-28T19:44:33.265Z,87.83
2023-01-28T19:47:00.437Z,87.70
2023-01-28T19:49:26.879Z,87.59
2023-01-28T19:51:53.197Z,87.60
2023-01-28T19:54:19.508Z,87.58
2023-01-28T19:56:45.808Z,87.49
2023-01-28T19:59:12.186Z,87.53
2023-01-28T20:01:38.525Z,87.45
2023-01-28T20:04:04.924Z,87.53
2023-01-28T20:06:32.202Z,87.92
2023-01-28T20:09:04.599Z,87.79
2023-01-28T20:11:30.918Z,87.43
2023-01-28T20:13:57.303Z,87.23
2023-01-28T20:16:31.899Z,87.21
2023-01-28T20:19:03.952Z,87.12
2023-01-28T20:21:31.594Z,86.99
2023-01-28T20:23:59.717Z,86.79
2023-01-28T20:26:29.796Z,86.92
2023-01-28T20:28:56.088Z,86.88
2023-01-28T20:31:22.527Z,87.08
2023-01-28T20:33:48.925Z,87.15
2023-01-28T20:36:15.396Z,87.27
2023-01-28T20:38:46.547Z,88.05
2023-01-28T20:41:19.333Z,88.71
2023-01-28T20:43:46.361Z,88.39
2023-01-28T20:46:20.807Z,88.00
2023-01-28T20:48:47.818Z,87.55
2023-01-28T20:51:19.835Z,87.08
2023-01-28T20:53:46.716Z,86.69
2023-01-28T20:56:14.840Z,86.64
2023-01-28T20:58:41.599Z,86.43
2023-01-28T21:01:08.085Z,86.32
2023-01-28T21:03:34.723Z,86.29
2023-01-28T21:06:01.252Z,86.00
2023-01-28T21:08:27.585Z,85.75
2023-01-28T21:10:53.888Z,85.58
2023-01-28T21:13:20.272Z,85.38
2023-01-28T21:15:54.190Z,85.39
2023-01-28T21:18:21.051Z,85.53
2023-01-28T21:20:47.421Z,85.74
2023-01-28T21:23:13.875Z,85.67
2023-01-28T21:25:44.574Z,85.38
2023-01-28T21:28:11.108Z,85.50
2023-01-28T21:30:37.677Z,85.29
2023-01-28T21:33:04.018Z,85.34
2023-01-28T21:35:30.383Z,85.01
2023-01-28T21:37:56.675Z,85.15
2023-01-28T21:40:22.981Z,84.64
2023-01-28T21:42:53.482Z,84.52
2023-01-28T21:45:19.779Z,84.37
2023-01-28T21:47:46.230Z,83.92
2023-01-28T21:50:12.692Z,83.67
2023-01-28T21:52:39.112Z,83.55
2023-01-28T21:55:05.889Z,83.65
2023-01-28T21:57:32.179Z,83.39
2023-01-28T21:59:58.524Z,83.66
2023-01-28T22:02:24.936Z,83.67
2023-01-28T22:04:51.394Z,83.98
2023-01-28T22:07:19.055Z,84.25
2023-01-28T22:09:47.096Z,84.53
2023-01-28T22:12:14.767Z,84.73
2023-01-28T22:14:42.211Z,84.55
2023-01-28T22:17:09.774Z,84.46
2023-01-28T22:19:36.368Z,84.04
2023-01-28T22:22:03.292Z,83.90
2023-01-28T22:24:30.292Z,83.71
2023-01-28T22:26:57.079Z,83.47
2023-01-28T22:29:24.746Z,83.70
2023-01-28T22:31:53.331Z,83.50
2023-01-28T22:34:21.351Z,83.31
2023-01-28T22:36:48.135Z,82.56
2023-01-28T22:39:16.536Z,82.64
2023-01-28T22:41:44.674Z,83.01
2023-01-28T22:44:11.131Z,82.81
2023-01-28T22:46:37.694Z,82.74
2023-01-28T22:49:04.380Z,82.47
2023-01-28T22:51:33.609Z,82.32
2023-01-28T22:54:00.012Z,82.53
2023-01-28T22:56:27.789Z,82.75
2023-01-28T22:58:59.659Z,82.44
2023-01-28T23:01:27.137Z,82.36
2023-01-28T23:03:54.251Z,82.50
2023-01-28T23:06:22.360Z,82.50
2023-01-28T23:08:49.696Z,82.50
2023-01-28T23:11:16.652Z,82.00
2023-01-28T23:13:43.968Z,82.26
2023-01-28T23:16:10.283Z,82.25
2023-01-28T23:18:37.556Z,81.96
2023-01-28T23:21:04.005Z,82.42
2023-01-28T23:23:30.308Z,82.02
2023-01-28T23:25:56.668Z,82.12
2023-01-28T23:28:22.978Z,81.80
2023-01-28T23:30:49.362Z,82.12
2023-01-28T23:33:15.705Z,82.27
2023-01-28T23:35:42.019Z,82.08
2023-01-28T23:38:08.311Z,81.95
2023-01-28T23:40:34.698Z,82.00
2023-01-28T23:43:00.995Z,81.46
2023-01-28T23:45:27.510Z,81.62
2023-01-28T23:47:53.840Z,81.44
2023-01-28T23:50:20.179Z,81.00
2023-01-28T23:52:46.495Z,81.34
2023-01-28T23:55:12.780Z,81.53
2023-01-28T23:57:39.116Z,81.70
